sensor_id;sensor_type;location;lat;lon;timestamp;temperature;humidity
33269;DHT22;19640;50.944;5.260;2022-12-10T00:01:05;2.10;99.90
33269;DHT22;19640;50.944;5.260;2022-12-10T00:03:31;2.10;99.90
33269;DHT22;19640;50.944;5.260;2022-12-10T00:06:00;2.30;99.90
33269;DHT22;19640;50.944;5.260;2022-12-10T00:08:27;2.10;99.90
33269;DHT22;19640;50.944;5.260;2022-12-10T00:10:52;1.90;99.90
33269;DHT22;19640;50.944;5.260;2022-12-10T00:13:18;1.70;99.90
33269;DHT22;19640;50.944;5.260;2022-12-10T00:15:43;1.90;99.90
33269;DHT22;19640;50.944;5.260;2022-12-10T00:18:09;1.70;99.90
33269;DHT22;19640;50.944;5.260;2022-12-10T00:20:36;1.60;99.90
33269;DHT22;19640;50.944;5.260;2022-12-10T00:23:02;1.70;99.90
33269;DHT22;19640;50.944;5.260;2022-12-10T00:25:28;1.50;99.90
33269;DHT22;19640;50.944;5.260;2022-12-10T00:27:54;1.30;99.90
33269;DHT22;19640;50.944;5.260;2022-12-10T00:30:19;1.40;99.90
33269;DHT22;19640;50.944;5.260;2022-12-10T00:32:45;1.60;99.90
33269;DHT22;19640;50.944;5.260;2022-12-10T00:35:11;1.40;99.90
33269;DHT22;19640;50.944;5.260;2022-12-10T00:37:36;1.40;99.90
33269;DHT22;19640;50.944;5.260;2022-12-10T00:40:03;1.70;99.90
33269;DHT22;19640;50.944;5.260;2022-12-10T00:42:28;1.70;99.90
33269;DHT22;19640;50.944;5.260;2022-12-10T00:44:54;1.80;99.90
33269;DHT22;19640;50.944;5.260;2022-12-10T00:47:19;1.90;99.90
33269;DHT22;19640;50.944;5.260;2022-12-10T00:49:45;1.70;99.90
33269;DHT22;19640;50.944;5.260;2022-12-10T00:52:11;1.80;99.90
33269;DHT22;19640;50.944;5.260;2022-12-10T00:54:36;1.70;99.90
33269;DHT22;19640;50.944;5.260;2022-12-10T00:57:02;1.70;99.90
33269;DHT22;19640;50.944;5.260;2022-12-10T00:59:28;1.50;99.90
33269;DHT22;19640;50.944;5.260;2022-12-10T01:01:54;1.50;99.90
33269;DHT22;19640;50.944;5.260;2022-12-10T01:04:19;1.50;99.90
33269;DHT22;19640;50.944;5.260;2022-12-10T01:06:48;1.70;99.90
33269;DHT22;19640;50.944;5.260;2022-12-10T01:09:16;1.80;99.90
33269;DHT22;19640;50.944;5.260;2022-12-10T01:11:44;1.60;99.90
33269;DHT22;19640;50.944;5.260;2022-12-10T01:14:12;1.40;99.90
33269;DHT22;19640;50.944;5.260;2022-12-10T01:16:39;1.70;99.90
33269;DHT22;19640;50.944;5.260;2022-12-10T01:19:05;1.80;99.90
33269;DHT22;19640;50.944;5.260;2022-12-10T01:21:31;1.60;99.90
33269;DHT22;19640;50.944;5.260;2022-12-10T01:23:57;1.50;99.90
33269;DHT22;19640;50.944;5.260;2022-12-10T01:26:26;1.60;99.90
33269;DHT22;19640;50.944;5.260;2022-12-10T01:28:53;1.50;99.90
33269;DHT22;19640;50.944;5.260;2022-12-10T01:31:25;1.40;99.90
33269;DHT22;19640;50.944;5.260;2022-12-10T01:33:51;1.40;99.90
33269;DHT22;19640;50.944;5.260;2022-12-10T01:36:21;1.60;99.90
33269;DHT22;19640;50.944;5.260;2022-12-10T01:38:47;1.60;99.90
33269;DHT22;19640;50.944;5.260;2022-12-10T01:41:16;1.70;99.90
33269;DHT22;19640;50.944;5.260;2022-12-10T01:43:57;1.60;99.90
33269;DHT22;19640;50.944;5.260;2022-12-10T01:46:34;1.60;99.90
33269;DHT22;19640;50.944;5.260;2022-12-10T01:49:02;1.50;99.90
33269;DHT22;19640;50.944;5.260;2022-12-10T01:51:30;1.20;99.90
33269;DHT22;19640;50.944;5.260;2022-12-10T01:53:57;1.30;99.90
33269;DHT22;19640;50.944;5.260;2022-12-10T01:56:26;1.10;99.90
33269;DHT22;19640;50.944;5.260;2022-12-10T01:58:54;1.10;99.90
33269;DHT22;19640;50.944;5.260;2022-12-10T02:01:50;1.20;99.90
33269;DHT22;19640;50.944;5.260;2022-12-10T02:13:01;1.30;99.90
33269;DHT22;19640;50.944;5.260;2022-12-10T02:15:32;1.40;99.90
33269;DHT22;19640;50.944;5.260;2022-12-10T02:18:08;1.30;99.90
33269;DHT22;19640;50.944;5.260;2022-12-10T02:20:41;1.60;99.90
33269;DHT22;19640;50.944;5.260;2022-12-10T02:23:10;1.40;99.90
33269;DHT22;19640;50.944;5.260;2022-12-10T02:31:04;1.50;99.90
33269;DHT22;19640;50.944;5.260;2022-12-10T02:33:31;1.20;99.90
33269;DHT22;19640;50.944;5.260;2022-12-10T02:35:58;1.30;99.90
33269;DHT22;19640;50.944;5.260;2022-12-10T02:38:30;1.10;99.90
33269;DHT22;19640;50.944;5.260;2022-12-10T02:41:01;1.20;99.90
33269;DHT22;19640;50.944;5.260;2022-12-10T02:43:27;1.20;99.90
33269;DHT22;19640;50.944;5.260;2022-12-10T02:45:58;1.00;99.90
33269;DHT22;19640;50.944;5.260;2022-12-10T02:48:25;0.80;99.90
33269;DHT22;19640;50.944;5.260;2022-12-10T02:50:50;1.10;99.90
33269;DHT22;19640;50.944;5.260;2022-12-10T02:53:16;1.20;99.90
33269;DHT22;19640;50.944;5.260;2022-12-10T02:58:39;1.00;99.90
33269;DHT22;19640;50.944;5.260;2022-12-10T03:01:13;0.80;99.90
33269;DHT22;19640;50.944;5.260;2022-12-10T03:04:06;1.00;99.90
33269;DHT22;19640;50.944;5.260;2022-12-10T03:06:36;1.30;99.90
33269;DHT22;19640;50.944;5.260;2022-12-10T03:09:07;1.30;99.90
33269;DHT22;19640;50.944;5.260;2022-12-10T03:11:33;1.30;99.90
33269;DHT22;19640;50.944;5.260;2022-12-10T03:14:09;1.00;99.90
33269;DHT22;19640;50.944;5.260;2022-12-10T03:16:42;1.10;99.90
33269;DHT22;19640;50.944;5.260;2022-12-10T03:19:18;1.30;99.90
33269;DHT22;19640;50.944;5.260;2022-12-10T03:21:46;1.10;99.90
33269;DHT22;19640;50.944;5.260;2022-12-10T03:24:13;1.20;99.90
33269;DHT22;19640;50.944;5.260;2022-12-10T03:26:41;1.50;99.90
33269;DHT22;19640;50.944;5.260;2022-12-10T03:29:17;1.50;99.90
33269;DHT22;19640;50.944;5.260;2022-12-10T03:31:44;1.00;99.90
33269;DHT22;19640;50.944;5.260;2022-12-10T03:34:11;0.80;99.90
33269;DHT22;19640;50.944;5.260;2022-12-10T03:36:38;0.90;99.90
33269;DHT22;19640;50.944;5.260;2022-12-10T03:39:05;1.00;99.90
33269;DHT22;19640;50.944;5.260;2022-12-10T03:41:31;1.10;99.90
33269;DHT22;19640;50.944;5.260;2022-12-10T03:43:58;1.00;99.90
33269;DHT22;19640;50.944;5.260;2022-12-10T03:46:26;1.10;99.90
33269;DHT22;19640;50.944;5.260;2022-12-10T03:48:52;1.50;99.90
33269;DHT22;19640;50.944;5.260;2022-12-10T03:51:19;1.50;99.90
33269;DHT22;19640;50.944;5.260;2022-12-10T03:53:45;1.40;99.90
33269;DHT22;19640;50.944;5.260;2022-12-10T03:56:11;1.30;99.90
33269;DHT22;19640;50.944;5.260;2022-12-10T03:58:37;1.50;99.90
33269;DHT22;19640;50.944;5.260;2022-12-10T04:01:03;1.70;99.90
33269;DHT22;19640;50.944;5.260;2022-12-10T04:03:29;1.50;99.90
33269;DHT22;19640;50.944;5.260;2022-12-10T04:06:04;1.60;99.90
33269;DHT22;19640;50.944;5.260;2022-12-10T04:08:30;1.70;99.90
33269;DHT22;19640;50.944;5.260;2022-12-10T04:11:05;1.40;99.90
33269;DHT22;19640;50.944;5.260;2022-12-10T04:13:36;1.40;99.90
33269;DHT22;19640;50.944;5.260;2022-12-10T04:16:20;1.30;99.90
33269;DHT22;19640;50.944;5.260;2022-12-10T04:18:53;1.10;99.90
33269;DHT22;19640;50.944;5.260;2022-12-10T04:21:19;1.50;99.90
33269;DHT22;19640;50.944;5.260;2022-12-10T04:24:03;1.40;99.90
33269;DHT22;19640;50.944;5.260;2022-12-10T04:26:48;1.40;99.90
33269;DHT22;19640;50.944;5.260;2022-12-10T04:29:30;1.30;99.90
33269;DHT22;19640;50.944;5.260;2022-12-10T04:31:56;1.30;99.90
33269;DHT22;19640;50.944;5.260;2022-12-10T04:34:23;1.40;99.90
33269;DHT22;19640;50.944;5.260;2022-12-10T04:36:49;1.30;99.90
33269;DHT22;19640;50.944;5.260;2022-12-10T04:39:16;1.40;99.90
33269;DHT22;19640;50.944;5.260;2022-12-10T04:41:45;1.80;99.90
33269;DHT22;19640;50.944;5.260;2022-12-10T04:44:11;1.70;99.90
33269;DHT22;19640;50.944;5.260;2022-12-10T04:46:36;1.50;99.90
33269;DHT22;19640;50.944;5.260;2022-12-10T04:49:03;1.60;99.90
33269;DHT22;19640;50.944;5.260;2022-12-10T04:51:29;1.50;99.90
33269;DHT22;19640;50.944;5.260;2022-12-10T04:53:55;1.60;99.90
33269;DHT22;19640;50.944;5.260;2022-12-10T04:56:21;1.30;99.90
33269;DHT22;19640;50.944;5.260;2022-12-10T04:58:46;1.30;99.90
33269;DHT22;19640;50.944;5.260;2022-12-10T05:01:12;1.40;99.90
33269;DHT22;19640;50.944;5.260;2022-12-10T05:03:38;1.30;99.90
33269;DHT22;19640;50.944;5.260;2022-12-10T05:06:07;0.90;99.90
33269;DHT22;19640;50.944;5.260;2022-12-10T05:08:34;1.00;99.90
33269;DHT22;19640;50.944;5.260;2022-12-10T05:11:05;1.00;99.90
33269;DHT22;19640;50.944;5.260;2022-12-10T05:13:31;1.10;99.90
33269;DHT22;19640;50.944;5.260;2022-12-10T05:15:57;1.10;99.90
33269;DHT22;19640;50.944;5.260;2022-12-10T05:18:23;1.10;99.90
33269;DHT22;19640;50.944;5.260;2022-12-10T05:20:49;0.90;99.90
33269;DHT22;19640;50.944;5.260;2022-12-10T05:23:15;1.10;99.90
33269;DHT22;19640;50.944;5.260;2022-12-10T05:26:10;0.90;99.90
33269;DHT22;19640;50.944;5.260;2022-12-10T05:28:38;1.10;99.90
33269;DHT22;19640;50.944;5.260;2022-12-10T05:31:05;1.20;99.90
33269;DHT22;19640;50.944;5.260;2022-12-10T05:33:31;1.10;99.90
33269;DHT22;19640;50.944;5.260;2022-12-10T05:35:59;0.90;99.90
33269;DHT22;19640;50.944;5.260;2022-12-10T05:38:26;0.90;99.90
33269;DHT22;19640;50.944;5.260;2022-12-10T05:40:52;0.90;99.90
33269;DHT22;19640;50.944;5.260;2022-12-10T05:43:19;0.90;99.90
33269;DHT22;19640;50.944;5.260;2022-12-10T05:45:45;0.80;99.90
33269;DHT22;19640;50.944;5.260;2022-12-10T05:48:12;1.00;99.90
33269;DHT22;19640;50.944;5.260;2022-12-10T05:50:39;1.20;99.90
33269;DHT22;19640;50.944;5.260;2022-12-10T05:53:05;1.20;99.90
33269;DHT22;19640;50.944;5.260;2022-12-10T05:55:31;1.00;99.90
33269;DHT22;19640;50.944;5.260;2022-12-10T05:58:01;0.90;99.90
33269;DHT22;19640;50.944;5.260;2022-12-10T06:00:27;0.90;99.90
33269;DHT22;19640;50.944;5.260;2022-12-10T06:02:54;1.00;99.90
33269;DHT22;19640;50.944;5.260;2022-12-10T06:05:20;0.90;99.90
33269;DHT22;19640;50.944;5.260;2022-12-10T06:07:45;1.00;99.90
33269;DHT22;19640;50.944;5.260;2022-12-10T06:10:12;1.00;99.90
33269;DHT22;19640;50.944;5.260;2022-12-10T06:12:38;1.00;99.90
33269;DHT22;19640;50.944;5.260;2022-12-10T06:15:04;1.00;99.90
33269;DHT22;19640;50.944;5.260;2022-12-10T06:17:30;0.90;99.90
33269;DHT22;19640;50.944;5.260;2022-12-10T06:19:57;1.10;99.90
33269;DHT22;19640;50.944;5.260;2022-12-10T06:22:23;1.10;99.90
33269;DHT22;19640;50.944;5.260;2022-12-10T06:24:48;1.30;99.90
33269;DHT22;19640;50.944;5.260;2022-12-10T06:27:14;1.30;99.90
33269;DHT22;19640;50.944;5.260;2022-12-10T06:29:40;1.40;99.90
33269;DHT22;19640;50.944;5.260;2022-12-10T06:32:06;1.30;99.90
33269;DHT22;19640;50.944;5.260;2022-12-10T06:34:31;1.20;99.90
33269;DHT22;19640;50.944;5.260;2022-12-10T06:36:57;1.60;99.90
33269;DHT22;19640;50.944;5.260;2022-12-10T06:39:23;1.60;99.90
33269;DHT22;19640;50.944;5.260;2022-12-10T06:41:48;1.50;99.90
33269;DHT22;19640;50.944;5.260;2022-12-10T06:44:14;1.50;99.90
33269;DHT22;19640;50.944;5.260;2022-12-10T06:46:40;1.40;99.90
33269;DHT22;19640;50.944;5.260;2022-12-10T06:49:07;1.50;99.90
33269;DHT22;19640;50.944;5.260;2022-12-10T06:51:33;1.40;99.90
33269;DHT22;19640;50.944;5.260;2022-12-10T06:53:59;1.70;99.90
33269;DHT22;19640;50.944;5.260;2022-12-10T06:56:24;1.10;99.90
33269;DHT22;19640;50.944;5.260;2022-12-10T06:58:50;1.10;99.90
33269;DHT22;19640;50.944;5.260;2022-12-10T07:01:22;1.40;99.90
33269;DHT22;19640;50.944;5.260;2022-12-10T07:03:52;0.90;99.90
33269;DHT22;19640;50.944;5.260;2022-12-10T07:06:18;0.50;99.90
33269;DHT22;19640;50.944;5.260;2022-12-10T07:08:44;0.60;99.90
33269;DHT22;19640;50.944;5.260;2022-12-10T07:11:12;0.80;99.90
33269;DHT22;19640;50.944;5.260;2022-12-10T07:13:38;1.00;99.90
33269;DHT22;19640;50.944;5.260;2022-12-10T07:16:15;1.10;99.90
33269;DHT22;19640;50.944;5.260;2022-12-10T07:18:41;0.90;99.90
33269;DHT22;19640;50.944;5.260;2022-12-10T07:21:19;1.00;99.90
33269;DHT22;19640;50.944;5.260;2022-12-10T07:23:45;1.00;99.90
33269;DHT22;19640;50.944;5.260;2022-12-10T07:26:11;0.80;99.90
33269;DHT22;19640;50.944;5.260;2022-12-10T07:28:36;1.10;99.90
33269;DHT22;19640;50.944;5.260;2022-12-10T07:31:04;1.40;99.90
33269;DHT22;19640;50.944;5.260;2022-12-10T07:33:29;1.10;99.90
33269;DHT22;19640;50.944;5.260;2022-12-10T07:35:55;1.00;99.90
33269;DHT22;19640;50.944;5.260;2022-12-10T07:38:23;0.90;99.90
33269;DHT22;19640;50.944;5.260;2022-12-10T07:40:49;0.60;99.90
33269;DHT22;19640;50.944;5.260;2022-12-10T07:43:14;0.80;99.90
33269;DHT22;19640;50.944;5.260;2022-12-10T07:45:40;0.90;99.90
33269;DHT22;19640;50.944;5.260;2022-12-10T07:48:06;0.70;99.90
33269;DHT22;19640;50.944;5.260;2022-12-10T07:50:31;0.40;99.90
33269;DHT22;19640;50.944;5.260;2022-12-10T07:52:57;0.70;99.90
33269;DHT22;19640;50.944;5.260;2022-12-10T07:55:23;0.60;99.90
33269;DHT22;19640;50.944;5.260;2022-12-10T07:57:48;0.60;99.90
33269;DHT22;19640;50.944;5.260;2022-12-10T08:00:14;0.80;99.90
33269;DHT22;19640;50.944;5.260;2022-12-10T08:02:40;0.70;99.90
33269;DHT22;19640;50.944;5.260;2022-12-10T08:05:06;0.80;99.90
33269;DHT22;19640;50.944;5.260;2022-12-10T08:07:32;1.00;99.90
33269;DHT22;19640;50.944;5.260;2022-12-10T08:09:58;0.90;99.90
33269;DHT22;19640;50.944;5.260;2022-12-10T08:12:23;0.80;99.90
33269;DHT22;19640;50.944;5.260;2022-12-10T08:14:49;0.50;99.90
33269;DHT22;19640;50.944;5.260;2022-12-10T08:17:15;0.70;99.90
33269;DHT22;19640;50.944;5.260;2022-12-10T08:19:40;1.00;99.90
33269;DHT22;19640;50.944;5.260;2022-12-10T08:22:06;0.90;99.90
33269;DHT22;19640;50.944;5.260;2022-12-10T08:24:32;1.00;99.90
33269;DHT22;19640;50.944;5.260;2022-12-10T08:26:57;1.10;99.90
33269;DHT22;19640;50.944;5.260;2022-12-10T08:29:23;0.60;99.90
33269;DHT22;19640;50.944;5.260;2022-12-10T08:31:49;0.40;99.90
33269;DHT22;19640;50.944;5.260;2022-12-10T08:34:17;0.60;99.90
33269;DHT22;19640;50.944;5.260;2022-12-10T08:36:44;0.80;99.90
33269;DHT22;19640;50.944;5.260;2022-12-10T08:39:10;0.90;99.90
33269;DHT22;19640;50.944;5.260;2022-12-10T08:41:36;0.90;99.90
33269;DHT22;19640;50.944;5.260;2022-12-10T08:44:02;1.00;99.90
33269;DHT22;19640;50.944;5.260;2022-12-10T08:46:27;1.00;99.90
33269;DHT22;19640;50.944;5.260;2022-12-10T08:48:54;1.00;99.90
33269;DHT22;19640;50.944;5.260;2022-12-10T08:51:20;1.00;99.90
33269;DHT22;19640;50.944;5.260;2022-12-10T08:53:46;1.10;99.90
33269;DHT22;19640;50.944;5.260;2022-12-10T08:56:12;1.00;99.90
33269;DHT22;19640;50.944;5.260;2022-12-10T08:58:38;1.00;99.90
33269;DHT22;19640;50.944;5.260;2022-12-10T09:01:13;1.10;99.90
33269;DHT22;19640;50.944;5.260;2022-12-10T09:03:39;0.90;99.90
33269;DHT22;19640;50.944;5.260;2022-12-10T09:06:06;0.90;99.90
33269;DHT22;19640;50.944;5.260;2022-12-10T09:08:33;0.80;99.90
33269;DHT22;19640;50.944;5.260;2022-12-10T09:11:37;0.90;99.90
33269;DHT22;19640;50.944;5.260;2022-12-10T09:13:56;1.00;99.90
33269;DHT22;19640;50.944;5.260;2022-12-10T09:16:30;1.40;99.90
33269;DHT22;19640;50.944;5.260;2022-12-10T09:18:58;1.30;99.90
33269;DHT22;19640;50.944;5.260;2022-12-10T09:21:24;1.30;99.90
33269;DHT22;19640;50.944;5.260;2022-12-10T09:23:50;1.40;99.90
33269;DHT22;19640;50.944;5.260;2022-12-10T09:26:17;1.60;99.90
33269;DHT22;19640;50.944;5.260;2022-12-10T09:28:44;1.20;99.90
33269;DHT22;19640;50.944;5.260;2022-12-10T09:31:10;0.90;99.90
33269;DHT22;19640;50.944;5.260;2022-12-10T09:33:37;0.70;99.90
33269;DHT22;19640;50.944;5.260;2022-12-10T09:36:08;0.80;99.90
33269;DHT22;19640;50.944;5.260;2022-12-10T09:38:35;0.90;99.90
33269;DHT22;19640;50.944;5.260;2022-12-10T09:41:05;0.80;99.90
33269;DHT22;19640;50.944;5.260;2022-12-10T09:51:24;1.30;99.90
33269;DHT22;19640;50.944;5.260;2022-12-10T09:53:55;1.00;99.90
33269;DHT22;19640;50.944;5.260;2022-12-10T09:56:31;1.10;99.90
33269;DHT22;19640;50.944;5.260;2022-12-10T09:59:03;0.80;99.90
33269;DHT22;19640;50.944;5.260;2022-12-10T10:01:33;0.60;99.90
33269;DHT22;19640;50.944;5.260;2022-12-10T10:04:00;0.90;99.90
33269;DHT22;19640;50.944;5.260;2022-12-10T10:06:28;0.80;99.90
33269;DHT22;19640;50.944;5.260;2022-12-10T10:08:57;1.10;99.90
33269;DHT22;19640;50.944;5.260;2022-12-10T10:11:28;1.20;99.90
33269;DHT22;19640;50.944;5.260;2022-12-10T10:14:11;1.40;99.90
33269;DHT22;19640;50.944;5.260;2022-12-10T10:16:45;1.40;99.90
33269;DHT22;19640;50.944;5.260;2022-12-10T10:19:21;1.60;99.90
33269;DHT22;19640;50.944;5.260;2022-12-10T10:21:50;1.70;99.90
33269;DHT22;19640;50.944;5.260;2022-12-10T10:24:21;1.60;99.90
33269;DHT22;19640;50.944;5.260;2022-12-10T10:26:48;1.40;99.90
33269;DHT22;19640;50.944;5.260;2022-12-10T10:29:19;1.30;99.90
33269;DHT22;19640;50.944;5.260;2022-12-10T10:31:45;1.40;99.90
33269;DHT22;19640;50.944;5.260;2022-12-10T10:34:20;1.30;99.90
33269;DHT22;19640;50.944;5.260;2022-12-10T10:36:47;1.30;99.90
33269;DHT22;19640;50.944;5.260;2022-12-10T10:39:23;1.10;99.90
33269;DHT22;19640;50.944;5.260;2022-12-10T10:41:53;1.40;99.90
33269;DHT22;19640;50.944;5.260;2022-12-10T10:44:22;1.40;99.90
33269;DHT22;19640;50.944;5.260;2022-12-10T10:46:53;1.50;99.90
33269;DHT22;19640;50.944;5.260;2022-12-10T10:49:26;1.60;99.90
33269;DHT22;19640;50.944;5.260;2022-12-10T10:51:53;1.50;99.90
33269;DHT22;19640;50.944;5.260;2022-12-10T10:54:40;1.50;99.90
33269;DHT22;19640;50.944;5.260;2022-12-10T10:59:52;1.10;99.90
33269;DHT22;19640;50.944;5.260;2022-12-10T11:02:25;1.20;99.90
33269;DHT22;19640;50.944;5.260;2022-12-10T11:04:54;1.10;99.90
33269;DHT22;19640;50.944;5.260;2022-12-10T11:09:49;1.30;99.90
33269;DHT22;19640;50.944;5.260;2022-12-10T11:14:53;1.60;99.90
33269;DHT22;19640;50.944;5.260;2022-12-10T11:17:24;1.80;99.90
33269;DHT22;19640;50.944;5.260;2022-12-10T11:22:24;1.40;99.90
33269;DHT22;19640;50.944;5.260;2022-12-10T11:24:50;1.50;99.90
33269;DHT22;19640;50.944;5.260;2022-12-10T11:27:25;1.60;99.90
33269;DHT22;19640;50.944;5.260;2022-12-10T11:39:01;1.50;99.90
33269;DHT22;19640;50.944;5.260;2022-12-10T11:41:43;1.20;99.90
33269;DHT22;19640;50.944;5.260;2022-12-10T11:55:44;1.00;99.90
33269;DHT22;19640;50.944;5.260;2022-12-10T12:04:30;1.20;99.90
33269;DHT22;19640;50.944;5.260;2022-12-10T12:10:11;1.00;99.90
33269;DHT22;19640;50.944;5.260;2022-12-10T12:15:36;1.10;99.90
33269;DHT22;19640;50.944;5.260;2022-12-10T12:18:26;1.30;99.90
33269;DHT22;19640;50.944;5.260;2022-12-10T12:21:02;1.20;99.90
33269;DHT22;19640;50.944;5.260;2022-12-10T12:28:51;1.30;99.90
33269;DHT22;19640;50.944;5.260;2022-12-10T12:31:26;1.50;99.90
33269;DHT22;19640;50.944;5.260;2022-12-10T12:34:01;1.70;99.90
33269;DHT22;19640;50.944;5.260;2022-12-10T12:36:30;1.90;99.90
33269;DHT22;19640;50.944;5.260;2022-12-10T12:44:44;1.60;99.90
33269;DHT22;19640;50.944;5.260;2022-12-10T12:49:40;1.50;99.90
33269;DHT22;19640;50.944;5.260;2022-12-10T12:54:46;1.00;99.90
33269;DHT22;19640;50.944;5.260;2022-12-10T12:57:28;1.10;99.90
33269;DHT22;19640;50.944;5.260;2022-12-10T13:00:08;1.30;99.90
33269;DHT22;19640;50.944;5.260;2022-12-10T13:03:07;1.50;99.90
33269;DHT22;19640;50.944;5.260;2022-12-10T13:05:37;1.50;99.90
33269;DHT22;19640;50.944;5.260;2022-12-10T13:08:28;1.40;99.90
33269;DHT22;19640;50.944;5.260;2022-12-10T13:11:00;1.20;99.90
33269;DHT22;19640;50.944;5.260;2022-12-10T13:14:01;1.50;99.90
33269;DHT22;19640;50.944;5.260;2022-12-10T13:22:11;1.70;99.90
33269;DHT22;19640;50.944;5.260;2022-12-10T13:27:10;1.20;99.90
33269;DHT22;19640;50.944;5.260;2022-12-10T13:40:13;1.10;99.90
33269;DHT22;19640;50.944;5.260;2022-12-10T13:42:43;1.00;99.90
33269;DHT22;19640;50.944;5.260;2022-12-10T13:45:31;1.10;99.90
33269;DHT22;19640;50.944;5.260;2022-12-10T13:48:25;1.30;99.90
33269;DHT22;19640;50.944;5.260;2022-12-10T13:53:55;1.10;99.90
33269;DHT22;19640;50.944;5.260;2022-12-10T14:05:03;1.00;99.90
33269;DHT22;19640;50.944;5.260;2022-12-10T14:07:31;1.10;99.90
33269;DHT22;19640;50.944;5.260;2022-12-10T14:09:58;1.10;99.90
33269;DHT22;19640;50.944;5.260;2022-12-10T14:12:31;1.10;99.90
33269;DHT22;19640;50.944;5.260;2022-12-10T14:15:07;1.20;99.90
33269;DHT22;19640;50.944;5.260;2022-12-10T14:17:40;1.00;99.90
33269;DHT22;19640;50.944;5.260;2022-12-10T14:20:07;1.30;99.90
33269;DHT22;19640;50.944;5.260;2022-12-10T14:22:54;1.20;99.90
33269;DHT22;19640;50.944;5.260;2022-12-10T14:25:45;1.40;99.90
33269;DHT22;19640;50.944;5.260;2022-12-10T14:28:13;1.50;99.90
33269;DHT22;19640;50.944;5.260;2022-12-10T14:30:44;1.40;99.90
33269;DHT22;19640;50.944;5.260;2022-12-10T14:33:14;1.10;99.90
33269;DHT22;19640;50.944;5.260;2022-12-10T14:35:41;1.00;99.90
33269;DHT22;19640;50.944;5.260;2022-12-10T14:38:19;1.10;99.90
33269;DHT22;19640;50.944;5.260;2022-12-10T14:40:45;1.40;99.90
33269;DHT22;19640;50.944;5.260;2022-12-10T14:45:55;1.70;99.90
33269;DHT22;19640;50.944;5.260;2022-12-10T14:48:22;1.80;99.90
33269;DHT22;19640;50.944;5.260;2022-12-10T14:50:49;1.90;99.90
33269;DHT22;19640;50.944;5.260;2022-12-10T14:53:25;2.00;99.90
33269;DHT22;19640;50.944;5.260;2022-12-10T14:55:56;1.80;99.90
33269;DHT22;19640;50.944;5.260;2022-12-10T14:58:45;1.90;99.90
33269;DHT22;19640;50.944;5.260;2022-12-10T15:01:22;1.90;99.90
33269;DHT22;19640;50.944;5.260;2022-12-10T15:03:51;1.90;99.90
33269;DHT22;19640;50.944;5.260;2022-12-10T15:06:18;2.00;99.90
33269;DHT22;19640;50.944;5.260;2022-12-10T15:08:45;1.40;99.90
33269;DHT22;19640;50.944;5.260;2022-12-10T15:11:16;1.30;99.90
33269;DHT22;19640;50.944;5.260;2022-12-10T15:13:46;1.60;99.90
33269;DHT22;19640;50.944;5.260;2022-12-10T15:16:28;1.70;99.90
33269;DHT22;19640;50.944;5.260;2022-12-10T15:18:54;1.90;99.90
33269;DHT22;19640;50.944;5.260;2022-12-10T15:21:24;1.90;99.90
33269;DHT22;19640;50.944;5.260;2022-12-10T15:24:06;2.00;99.90
33269;DHT22;19640;50.944;5.260;2022-12-10T15:26:33;2.00;99.90
33269;DHT22;19640;50.944;5.260;2022-12-10T15:29:27;1.90;99.90
33269;DHT22;19640;50.944;5.260;2022-12-10T15:31:57;1.80;99.90
33269;DHT22;19640;50.944;5.260;2022-12-10T15:34:27;1.90;99.90
33269;DHT22;19640;50.944;5.260;2022-12-10T15:36:56;1.40;99.90
33269;DHT22;19640;50.944;5.260;2022-12-10T15:39:31;1.40;99.90
33269;DHT22;19640;50.944;5.260;2022-12-10T15:42:04;1.70;99.90
33269;DHT22;19640;50.944;5.260;2022-12-10T15:49:58;1.40;99.90
33269;DHT22;19640;50.944;5.260;2022-12-10T15:52:26;1.40;99.90
33269;DHT22;19640;50.944;5.260;2022-12-10T15:54:54;1.20;99.90
33269;DHT22;19640;50.944;5.260;2022-12-10T15:57:32;1.10;99.90
33269;DHT22;19640;50.944;5.260;2022-12-10T16:00:00;1.30;99.90
33269;DHT22;19640;50.944;5.260;2022-12-10T16:05:33;1.60;99.90
33269;DHT22;19640;50.944;5.260;2022-12-10T16:08:06;1.50;99.90
33269;DHT22;19640;50.944;5.260;2022-12-10T16:10:37;1.30;99.90
33269;DHT22;19640;50.944;5.260;2022-12-10T16:13:11;1.20;99.90
33269;DHT22;19640;50.944;5.260;2022-12-10T16:15:44;1.30;99.90
33269;DHT22;19640;50.944;5.260;2022-12-10T16:18:10;1.50;99.90
33269;DHT22;19640;50.944;5.260;2022-12-10T16:20:36;1.30;99.90
33269;DHT22;19640;50.944;5.260;2022-12-10T16:23:03;1.50;99.90
33269;DHT22;19640;50.944;5.260;2022-12-10T16:25:31;1.30;99.90
33269;DHT22;19640;50.944;5.260;2022-12-10T16:27:58;1.40;99.90
33269;DHT22;19640;50.944;5.260;2022-12-10T16:30:35;1.30;99.90
33269;DHT22;19640;50.944;5.260;2022-12-10T16:33:02;1.50;99.90
33269;DHT22;19640;50.944;5.260;2022-12-10T16:35:28;1.50;99.90
33269;DHT22;19640;50.944;5.260;2022-12-10T16:37:54;1.30;99.90
33269;DHT22;19640;50.944;5.260;2022-12-10T16:40:21;1.10;99.90
33269;DHT22;19640;50.944;5.260;2022-12-10T16:42:47;1.10;99.90
33269;DHT22;19640;50.944;5.260;2022-12-10T16:45:27;1.00;99.90
33269;DHT22;19640;50.944;5.260;2022-12-10T16:47:52;1.20;99.90
33269;DHT22;19640;50.944;5.260;2022-12-10T16:50:19;0.90;99.90
33269;DHT22;19640;50.944;5.260;2022-12-10T16:52:45;0.90;99.90
33269;DHT22;19640;50.944;5.260;2022-12-10T16:55:13;0.80;99.90
33269;DHT22;19640;50.944;5.260;2022-12-10T16:57:39;0.90;99.90
33269;DHT22;19640;50.944;5.260;2022-12-10T17:00:06;0.80;99.90
33269;DHT22;19640;50.944;5.260;2022-12-10T17:02:32;0.80;99.90
33269;DHT22;19640;50.944;5.260;2022-12-10T17:04:58;0.70;99.90
33269;DHT22;19640;50.944;5.260;2022-12-10T17:07:24;0.70;99.90
33269;DHT22;19640;50.944;5.260;2022-12-10T17:09:49;1.00;99.90
33269;DHT22;19640;50.944;5.260;2022-12-10T17:12:16;1.20;99.90
33269;DHT22;19640;50.944;5.260;2022-12-10T17:14:43;1.10;99.90
33269;DHT22;19640;50.944;5.260;2022-12-10T17:17:13;0.90;99.90
33269;DHT22;19640;50.944;5.260;2022-12-10T17:19:40;0.90;99.90
33269;DHT22;19640;50.944;5.260;2022-12-10T17:22:07;1.00;99.90
33269;DHT22;19640;50.944;5.260;2022-12-10T17:24:33;1.00;99.90
33269;DHT22;19640;50.944;5.260;2022-12-10T17:27:07;0.90;99.90
33269;DHT22;19640;50.944;5.260;2022-12-10T17:29:40;0.90;99.90
33269;DHT22;19640;50.944;5.260;2022-12-10T17:32:12;0.90;99.90
33269;DHT22;19640;50.944;5.260;2022-12-10T17:34:38;1.00;99.90
33269;DHT22;19640;50.944;5.260;2022-12-10T17:37:12;1.10;99.90
33269;DHT22;19640;50.944;5.260;2022-12-10T17:39:38;1.10;99.90
33269;DHT22;19640;50.944;5.260;2022-12-10T17:42:04;1.30;99.90
33269;DHT22;19640;50.944;5.260;2022-12-10T17:44:35;1.20;99.90
33269;DHT22;19640;50.944;5.260;2022-12-10T17:47:02;1.20;99.90
33269;DHT22;19640;50.944;5.260;2022-12-10T17:49:37;1.00;99.90
33269;DHT22;19640;50.944;5.260;2022-12-10T17:52:02;1.00;99.90
33269;DHT22;19640;50.944;5.260;2022-12-10T17:54:28;0.90;99.90
33269;DHT22;19640;50.944;5.260;2022-12-10T17:56:54;1.10;99.90
33269;DHT22;19640;50.944;5.260;2022-12-10T17:59:19;1.00;99.90
33269;DHT22;19640;50.944;5.260;2022-12-10T18:01:45;1.10;99.90
33269;DHT22;19640;50.944;5.260;2022-12-10T18:04:11;1.20;99.90